Terminal Aerodrome Forecast
Issued by NWS Grand Forks, ND

Home | Current Version | Previous Version | Graphics & Text | Print | Product List | Glossary On
Versions: 1 2 3 4 5 6 7 8 9 10 11 12 13 14 15 16 17 18 19
051
FTUS43 KFGF 211132
TAFFAR
TAF
KFAR 211132Z 2112/2212 16007KT P6SM SCT100
      TEMPO 2112/2114 4SM BR
     FM211600 19008KT P6SM SCT200
     FM212000 25008KT P6SM BKN200
     FM220300 VRB05KT P6SM BKN150=

USA.gov is the U.S. government's official web portal to all federal, state and local government web resources and services.